Onslow, Iowa
Current Conditions -  °F | °C
As of 7:55 AM on Thursday 30 Oct 2014 (Local Time) from KMXO Reporting Station
Overcast Overcast  
Wind Chill: 36°   Ceiling: 8000
Heat Index: 36°   Visibility: 10mi
Dew Point: 34°   Wind: 0mph
Humidity: 93%   Direction: NA
Pressure: 30.1"   Gusts: NA
Location:  42.11°N, 91.02°W
Report Text: KMXO 301255Z AUTO 00000KT 10SM OVC080 02/01 A3010 RMK AO2
Loading
Personal Weather Stations






























Interactive Weather Map
Tropical Storm Tracking
New forecast layout! Learn more

10-Day Weather Forecast

Advertisements
Track Severe Weather on mobile